createdAt,value
2023-03-02T00:00:00.923Z,10.77
2023-03-02T00:02:29.903Z,11.43
2023-03-02T00:05:00.140Z,12.20
2023-03-02T00:07:31.917Z,11.53
2023-03-02T00:10:10.376Z,9.77
2023-03-02T00:12:38.376Z,12.17
2023-03-02T00:15:07.330Z,11.57
2023-03-02T00:17:35.369Z,10.20
2023-03-02T00:20:09.663Z,11.53
2023-03-02T00:22:37.640Z,11.87
2023-03-02T00:25:08.627Z,12.03
2023-03-02T00:27:43.278Z,12.40
2023-03-02T00:30:16.044Z,11.80
2023-03-02T00:32:45.855Z,11.60
2023-03-02T00:35:14.042Z,13.20
2023-03-02T00:37:42.013Z,11.10
2023-03-02T00:40:12.474Z,11.23
2023-03-02T00:42:40.508Z,12.67
2023-03-02T00:45:10.674Z,13.23
2023-03-02T00:47:40.613Z,13.77
2023-03-02T00:50:10.802Z,12.80
2023-03-02T00:52:38.932Z,13.03
2023-03-02T00:55:09.560Z,12.53
2023-03-02T00:57:38.874Z,12.37
2023-03-02T01:00:08.097Z,11.83
2023-03-02T01:02:39.314Z,12.97
2023-03-02T01:05:07.926Z,12.63
2023-03-02T01:07:35.913Z,13.10
2023-03-02T01:10:17.450Z,13.40
2023-03-02T01:12:46.749Z,12.67
2023-03-02T01:15:15.203Z,12.37
2023-03-02T01:17:43.964Z,12.80
2023-03-02T01:20:13.427Z,13.00
2023-03-02T01:22:42.213Z,11.97
2023-03-02T01:25:10.725Z,12.80
2023-03-02T01:27:49.619Z,13.57
2023-03-02T01:30:17.874Z,13.53
2023-03-02T01:32:46.131Z,14.37
2023-03-02T01:35:14.943Z,13.73
2023-03-02T01:37:47.188Z,13.67
2023-03-02T01:40:15.821Z,13.47
2023-03-02T01:42:57.654Z,12.70
2023-03-02T01:45:53.159Z,13.77
2023-03-02T01:48:27.113Z,13.47
2023-03-02T01:50:56.300Z,13.13
2023-03-02T01:53:28.522Z,14.33
2023-03-02T01:55:57.473Z,12.93
2023-03-02T01:58:33.382Z,12.63
2023-03-02T02:01:02.129Z,13.37
2023-03-02T02:03:32.095Z,14.27
2023-03-02T02:06:09.581Z,14.33
2023-03-02T02:08:39.515Z,13.97
2023-03-02T02:11:08.078Z,14.83
2023-03-02T02:13:37.475Z,14.10
2023-03-02T02:16:06.597Z,13.40
2023-03-02T02:18:36.948Z,14.73
2023-03-02T02:21:06.078Z,13.50
2023-03-02T02:23:41.743Z,13.73
2023-03-02T02:26:18.414Z,14.93
2023-03-02T02:28:56.949Z,12.87
2023-03-02T02:31:31.722Z,13.43
2023-03-02T02:34:05.132Z,14.57
2023-03-02T02:36:38.526Z,14.10
2023-03-02T02:39:09.419Z,13.07
2023-03-02T02:41:41.581Z,14.43
2023-03-02T02:44:14.459Z,13.53
2023-03-02T02:46:42.493Z,15.00
2023-03-02T02:49:35.069Z,13.83
2023-03-02T02:52:03.881Z,13.83
2023-03-02T02:54:34.052Z,14.37
2023-03-02T02:57:05.086Z,14.20
2023-03-02T02:59:36.633Z,13.37
2023-03-02T03:02:05.076Z,15.50
2023-03-02T03:04:35.905Z,14.37
2023-03-02T03:07:06.147Z,14.03
2023-03-02T03:09:34.331Z,14.40
2023-03-02T03:12:16.502Z,13.93
2023-03-02T03:14:45.494Z,13.33
2023-03-02T03:17:13.993Z,14.33
2023-03-02T03:19:43.817Z,13.30
2023-03-02T03:22:13.215Z,14.40
2023-03-02T03:24:43.085Z,14.50
2023-03-02T03:27:18.973Z,15.00
2023-03-02T03:29:48.785Z,15.27
2023-03-02T03:32:17.186Z,14.00
2023-03-02T03:34:45.524Z,13.97
2023-03-02T03:37:18.711Z,13.37
2023-03-02T03:39:47.418Z,15.27
2023-03-02T03:42:16.885Z,14.40
2023-03-02T03:44:46.232Z,14.23
2023-03-02T03:47:14.353Z,15.53
2023-03-02T03:49:42.545Z,16.33
2023-03-02T03:52:10.669Z,14.23
2023-03-02T03:54:43.849Z,15.13
2023-03-02T03:57:12.149Z,15.57
2023-03-02T03:59:40.311Z,15.33
2023-03-02T04:02:09.765Z,15.70
2023-03-02T04:04:38.105Z,14.13
2023-03-02T04:07:06.222Z,15.10
2023-03-02T04:09:37.828Z,15.40
2023-03-02T04:12:07.010Z,14.43
2023-03-02T04:14:41.343Z,15.50
2023-03-02T04:17:10.670Z,15.63
2023-03-02T04:19:38.678Z,14.80
2023-03-02T04:22:06.642Z,16.33
2023-03-02T04:24:34.670Z,15.20
2023-03-02T04:27:02.678Z,14.97
2023-03-02T04:29:32.361Z,15.67
2023-03-02T04:32:00.800Z,15.87
2023-03-02T04:34:30.207Z,15.40
2023-03-02T04:36:58.355Z,16.03
2023-03-02T04:39:26.727Z,16.43
2023-03-02T04:41:55.090Z,13.97
2023-03-02T04:44:23.128Z,15.67
2023-03-02T04:46:51.951Z,15.13
2023-03-02T04:49:21.244Z,16.47
2023-03-02T04:51:51.240Z,14.77
2023-03-02T04:54:21.820Z,16.80
2023-03-02T04:56:53.210Z,14.37
2023-03-02T04:59:36.462Z,15.17
2023-03-02T05:02:04.722Z,15.80
2023-03-02T05:04:33.092Z,14.20
2023-03-02T05:07:03.025Z,15.63
2023-03-02T05:09:31.072Z,16.50
2023-03-02T05:12:01.252Z,14.97
2023-03-02T05:14:30.536Z,14.63
2023-03-02T05:16:58.948Z,14.87
2023-03-02T05:19:27.358Z,13.57
2023-03-02T05:21:56.453Z,14.00
2023-03-02T05:24:25.842Z,15.30
2023-03-02T05:26:53.824Z,14.13
2023-03-02T05:29:21.936Z,12.83
2023-03-02T05:31:50.407Z,14.23
2023-03-02T05:34:19.495Z,15.33
2023-03-02T05:36:57.135Z,15.13
2023-03-02T05:39:27.438Z,14.73
2023-03-02T05:42:14.065Z,15.07
2023-03-02T05:44:42.068Z,14.30
2023-03-02T05:47:10.104Z,15.10
2023-03-02T05:49:38.165Z,14.00
2023-03-02T05:52:06.435Z,14.97
2023-03-02T05:54:35.766Z,15.10
2023-03-02T05:57:03.766Z,14.40
2023-03-02T05:59:31.792Z,15.07
2023-03-02T06:01:59.985Z,14.53
2023-03-02T06:04:28.053Z,14.37
2023-03-02T06:06:57.141Z,15.43
2023-03-02T06:09:25.113Z,14.67
2023-03-02T06:11:54.508Z,15.50
2023-03-02T06:14:22.709Z,16.57
2023-03-02T06:16:50.749Z,16.53
2023-03-02T06:19:18.927Z,15.70
2023-03-02T06:21:46.886Z,15.90
2023-03-02T06:24:14.862Z,15.93
2023-03-02T06:26:43.062Z,14.73
2023-03-02T06:29:13.281Z,14.60
2023-03-02T06:31:47.787Z,15.40
2023-03-02T06:34:16.169Z,14.87
2023-03-02T06:36:44.249Z,14.23
2023-03-02T06:39:16.106Z,14.73
2023-03-02T06:41:44.255Z,14.83
2023-03-02T06:44:13.960Z,15.73
2023-03-02T06:46:42.689Z,15.37
2023-03-02T06:49:13.853Z,15.23
2023-03-02T06:51:42.126Z,14.47
2023-03-02T06:54:10.167Z,15.47
2023-03-02T06:56:40.735Z,14.77
2023-03-02T06:59:09.021Z,14.37
2023-03-02T07:01:43.723Z,14.13
2023-03-02T07:04:11.805Z,14.90
2023-03-02T07:06:39.787Z,15.83
2023-03-02T07:09:07.816Z,14.17
2023-03-02T07:11:35.970Z,14.30
2023-03-02T07:14:04.586Z,14.50
2023-03-02T07:16:34.095Z,15.33
2023-03-02T07:19:03.461Z,14.20
2023-03-02T07:21:31.949Z,14.00
2023-03-02T07:24:00.113Z,14.47
2023-03-02T07:26:28.097Z,14.77
2023-03-02T07:28:59.073Z,14.43
2023-03-02T07:31:27.145Z,13.83
2023-03-02T07:33:55.103Z,13.97
2023-03-02T07:36:26.207Z,14.70
2023-03-02T07:38:54.874Z,14.10
2023-03-02T07:41:22.852Z,14.57
2023-03-02T07:43:50.852Z,12.77
2023-03-02T07:46:19.076Z,13.67
2023-03-02T07:48:47.095Z,13.60
2023-03-02T07:51:15.130Z,15.53
2023-03-02T07:53:44.459Z,14.77
2023-03-02T07:56:12.881Z,17.33
2023-03-02T07:58:40.907Z,15.03
2023-03-02T08:01:08.967Z,16.23
2023-03-02T08:03:36.971Z,13.63
2023-03-02T08:06:08.964Z,13.47
2023-03-02T08:09:00.243Z,13.00
2023-03-02T08:11:28.225Z,13.27
2023-03-02T08:13:56.163Z,13.00
2023-03-02T08:16:26.315Z,12.97
2023-03-02T08:18:54.405Z,12.97
2023-03-02T08:21:24.312Z,14.87
2023-03-02T08:23:52.763Z,13.67
2023-03-02T08:26:22.756Z,14.30
2023-03-02T08:28:50.794Z,14.40
2023-03-02T08:31:18.810Z,13.50
2023-03-02T08:33:47.026Z,13.67
2023-03-02T08:36:16.772Z,13.60
2023-03-02T08:38:45.666Z,12.27
2023-03-02T08:41:16.936Z,11.90
2023-03-02T08:43:46.697Z,13.47
2023-03-02T08:46:17.761Z,14.10
2023-03-02T08:48:45.943Z,13.77
2023-03-02T08:51:15.572Z,13.40
2023-03-02T08:53:46.213Z,13.97
2023-03-02T08:56:19.105Z,11.93
2023-03-02T08:58:49.176Z,14.70
2023-03-02T09:01:19.342Z,13.20
2023-03-02T09:03:47.587Z,14.40
2023-03-02T09:06:16.910Z,14.07
2023-03-02T09:08:45.686Z,12.13
2023-03-02T09:11:13.764Z,12.30
2023-03-02T09:13:41.777Z,13.27
2023-03-02T09:16:11.292Z,12.50
2023-03-02T09:18:39.737Z,12.70
2023-03-02T09:21:08.015Z,13.00
2023-03-02T09:23:36.590Z,13.80
2023-03-02T09:26:05.316Z,13.57
2023-03-02T09:28:33.553Z,13.50
2023-03-02T09:31:03.665Z,12.27
2023-03-02T09:33:33.946Z,13.77
2023-03-02T09:36:02.386Z,13.47
2023-03-02T09:38:30.344Z,13.93
2023-03-02T09:41:11.094Z,13.73
2023-03-02T09:43:46.862Z,12.90
2023-03-02T09:46:19.326Z,12.90
2023-03-02T09:49:04.254Z,12.67
2023-03-02T09:51:37.064Z,12.57
2023-03-02T09:54:09.539Z,13.60
2023-03-02T09:56:40.982Z,13.33
2023-03-02T09:59:19.184Z,13.00
2023-03-02T10:01:53.429Z,12.67
2023-03-02T10:04:27.171Z,13.07
2023-03-02T10:06:58.951Z,13.50
2023-03-02T10:09:27.227Z,12.27
2023-03-02T10:12:11.724Z,12.80
2023-03-02T10:15:00.731Z,12.07
2023-03-02T10:17:44.164Z,12.93
2023-03-02T10:20:20.350Z,12.07
2023-03-02T10:22:52.735Z,12.60
2023-03-02T10:25:31.709Z,12.53
2023-03-02T10:28:11.626Z,12.43
2023-03-02T10:30:40.821Z,10.57
2023-03-02T10:33:15.938Z,13.27
2023-03-02T10:35:48.411Z,11.63
2023-03-02T10:38:18.509Z,12.87
2023-03-02T10:40:48.945Z,11.83
2023-03-02T10:43:20.189Z,13.00
2023-03-02T10:46:00.111Z,11.97
2023-03-02T10:48:28.485Z,12.80
2023-03-02T10:51:00.388Z,11.50
2023-03-02T10:53:29.089Z,12.10
2023-03-02T10:55:57.352Z,13.13
2023-03-02T10:58:30.261Z,13.20
2023-03-02T11:01:00.728Z,12.77
2023-03-02T11:03:29.799Z,12.57
2023-03-02T11:06:00.459Z,14.63
2023-03-02T11:08:29.386Z,12.20
2023-03-02T11:11:00.992Z,10.97
2023-03-02T11:13:31.008Z,12.07
2023-03-02T11:16:00.676Z,11.73
2023-03-02T11:18:33.567Z,13.70
2023-03-02T11:21:05.619Z,14.97
2023-03-02T11:23:44.499Z,14.30
2023-03-02T11:26:19.281Z,12.73
2023-03-02T11:28:52.592Z,14.37
2023-03-02T11:31:29.673Z,13.23
2023-03-02T11:34:17.948Z,11.37
2023-03-02T11:37:06.843Z,11.80
2023-03-02T11:39:54.623Z,11.23
2023-03-02T11:42:27.941Z,12.43
2023-03-02T11:44:56.509Z,12.93
2023-03-02T11:47:24.982Z,12.20
2023-03-02T11:49:56.447Z,11.20
2023-03-02T11:52:28.525Z,11.17
2023-03-02T11:55:00.634Z,11.93
2023-03-02T11:57:33.752Z,13.23
2023-03-02T12:00:03.469Z,13.80
2023-03-02T12:02:31.449Z,13.67
2023-03-02T12:05:04.440Z,11.83
2023-03-02T12:07:33.945Z,12.07
2023-03-02T12:10:05.220Z,12.37
2023-03-02T12:13:01.820Z,12.40
2023-03-02T12:15:37.568Z,11.23
2023-03-02T12:18:31.128Z,13.67
2023-03-02T12:21:03.977Z,12.30
2023-03-02T12:23:36.068Z,11.93
2023-03-02T12:26:08.280Z,11.90
2023-03-02T12:28:38.097Z,12.27
2023-03-02T12:31:12.646Z,11.47
2023-03-02T12:33:47.614Z,12.63
2023-03-02T12:36:20.830Z,12.50
2023-03-02T12:39:06.631Z,12.40
2023-03-02T12:41:59.824Z,12.40
2023-03-02T12:44:43.755Z,13.30
2023-03-02T12:47:17.805Z,13.23
2023-03-02T12:49:51.155Z,12.03
2023-03-02T12:52:24.059Z,13.07
2023-03-02T12:55:03.663Z,13.13
2023-03-02T12:57:31.944Z,11.33
2023-03-02T13:00:02.774Z,11.70
2023-03-02T13:02:32.575Z,13.77
2023-03-02T13:05:02.933Z,11.40
2023-03-02T13:07:37.510Z,13.13
2023-03-02T13:10:16.102Z,13.10
2023-03-02T13:12:46.535Z,11.50
2023-03-02T13:15:17.065Z,12.57
2023-03-02T13:17:46.570Z,12.77
2023-03-02T13:20:15.744Z,11.83
2023-03-02T13:22:43.990Z,12.83
2023-03-02T13:25:24.262Z,13.20
2023-03-02T13:27:56.934Z,10.70
2023-03-02T13:30:29.833Z,12.57
2023-03-02T13:33:03.171Z,12.13
2023-03-02T13:35:32.994Z,13.20
2023-03-02T13:38:06.763Z,12.47
2023-03-02T13:40:41.080Z,10.90
2023-03-02T13:43:23.689Z,12.60
2023-03-02T13:45:57.115Z,11.97
2023-03-02T13:48:27.642Z,13.57
2023-03-02T13:50:58.839Z,12.77
2023-03-02T13:53:28.158Z,13.10
2023-03-02T13:56:00.241Z,13.53
2023-03-02T13:58:29.704Z,12.53
2023-03-02T14:00:58.004Z,13.10
2023-03-02T14:03:28.106Z,13.00
2023-03-02T14:05:57.647Z,11.97
2023-03-02T14:08:25.697Z,12.60
2023-03-02T14:10:57.208Z,11.83
2023-03-02T14:13:31.334Z,11.43
2023-03-02T14:15:59.392Z,11.87
2023-03-02T14:18:37.434Z,12.50
2023-03-02T14:21:06.415Z,13.40
2023-03-02T14:23:34.404Z,12.63
2023-03-02T14:26:19.589Z,12.80
2023-03-02T14:28:53.568Z,12.43
2023-03-02T14:31:28.149Z,12.70
2023-03-02T14:33:56.162Z,11.17
2023-03-02T14:36:28.651Z,11.90
2023-03-02T14:38:57.662Z,12.00
2023-03-02T14:41:26.458Z,12.30
2023-03-02T14:43:55.936Z,6.80
2023-03-02T14:46:23.960Z,11.63
2023-03-02T14:48:52.916Z,11.77
2023-03-02T14:51:24.898Z,11.40
2023-03-02T14:53:56.234Z,11.47
2023-03-02T14:56:24.794Z,12.40
2023-03-02T14:58:55.099Z,12.07
2023-03-02T15:01:24.501Z,13.13
2023-03-02T15:03:52.612Z,10.50
2023-03-02T15:06:27.054Z,12.47
2023-03-02T15:08:58.201Z,10.57
2023-03-02T15:11:27.221Z,11.17
2023-03-02T15:13:57.004Z,12.37
2023-03-02T15:16:25.082Z,11.10
2023-03-02T15:18:54.048Z,12.17
2023-03-02T15:21:24.079Z,12.60
2023-03-02T15:23:52.198Z,11.83
2023-03-02T15:26:20.578Z,13.13
2023-03-02T15:28:51.372Z,11.43
2023-03-02T15:31:21.199Z,11.23
2023-03-02T15:33:51.996Z,11.90
2023-03-02T15:36:20.755Z,11.57
2023-03-02T15:38:50.681Z,11.87
2023-03-02T15:41:18.850Z,10.30
2023-03-02T15:43:50.762Z,11.70
2023-03-02T15:46:20.293Z,12.13
2023-03-02T15:48:48.428Z,10.07
2023-03-02T15:51:16.390Z,12.30
2023-03-02T15:53:44.468Z,10.67
2023-03-02T15:56:15.866Z,11.43
2023-03-02T15:58:47.864Z,10.67
2023-03-02T16:01:16.473Z,11.00
2023-03-02T16:03:46.541Z,10.83
2023-03-02T16:06:15.929Z,12.07
2023-03-02T16:08:43.930Z,11.57
2023-03-02T16:11:13.316Z,11.40
2023-03-02T16:13:41.364Z,11.60
2023-03-02T16:16:11.079Z,11.70
2023-03-02T16:18:39.298Z,10.53
2023-03-02T16:21:13.139Z,11.53
2023-03-02T16:23:41.203Z,10.97
2023-03-02T16:26:12.011Z,12.73
2023-03-02T16:28:40.097Z,11.83
2023-03-02T16:31:10.121Z,11.47
2023-03-02T16:33:38.757Z,11.20
2023-03-02T16:36:11.312Z,9.90
2023-03-02T16:38:40.558Z,12.43
2023-03-02T16:41:16.531Z,10.73
2023-03-02T16:43:47.582Z,12.80
2023-03-02T16:46:15.807Z,10.60
2023-03-02T16:48:44.821Z,12.27
2023-03-02T16:51:14.869Z,12.27
2023-03-02T16:53:42.896Z,11.47
2023-03-02T16:56:12.997Z,11.20
2023-03-02T16:58:41.659Z,12.00
2023-03-02T17:01:12.100Z,12.63
2023-03-02T17:03:40.541Z,11.80
2023-03-02T17:06:09.980Z,10.83
2023-03-02T17:08:39.878Z,11.13
2023-03-02T17:11:08.620Z,11.47
2023-03-02T17:13:37.162Z,11.80
2023-03-02T17:16:05.963Z,11.17
2023-03-02T17:18:34.711Z,10.30
2023-03-02T17:21:04.266Z,11.23
2023-03-02T17:23:32.879Z,10.70
2023-03-02T17:26:02.390Z,11.70
2023-03-02T17:28:30.536Z,10.63
2023-03-02T17:30:58.687Z,11.83
2023-03-02T17:33:26.828Z,12.13
2023-03-02T17:35:55.852Z,10.67
2023-03-02T17:38:23.842Z,10.77
2023-03-02T17:40:51.804Z,11.33
2023-03-02T17:43:21.233Z,11.00
2023-03-02T17:45:49.276Z,11.80
2023-03-02T17:48:17.381Z,12.80
2023-03-02T17:50:46.419Z,10.67
2023-03-02T17:53:14.397Z,10.93
2023-03-02T17:55:42.343Z,11.63
2023-03-02T17:58:10.376Z,12.10
2023-03-02T18:00:40.545Z,11.77
2023-03-02T18:03:08.554Z,11.43
2023-03-02T18:05:36.570Z,11.57
2023-03-02T18:08:04.833Z,10.73
2023-03-02T18:10:32.849Z,10.47
2023-03-02T18:13:00.934Z,11.23
2023-03-02T18:15:31.323Z,12.30
2023-03-02T18:18:00.684Z,12.93
2023-03-02T18:20:30.378Z,11.90
2023-03-02T18:23:04.278Z,11.97
2023-03-02T18:25:32.308Z,11.70
2023-03-02T18:28:00.285Z,12.53
2023-03-02T18:30:28.305Z,12.43
2023-03-02T18:32:56.305Z,11.13
2023-03-02T18:35:25.895Z,11.73
2023-03-02T18:37:55.414Z,15.60
2023-03-02T18:40:23.503Z,13.93
2023-03-02T18:42:51.834Z,14.97
2023-03-02T18:45:23.417Z,13.03
2023-03-02T18:47:51.394Z,13.53
2023-03-02T18:50:50.549Z,14.53
2023-03-02T18:53:25.015Z,13.40
2023-03-02T18:55:55.854Z,15.47
2023-03-02T18:58:25.713Z,12.57
2023-03-02T19:00:54.646Z,11.83
2023-03-02T19:03:24.784Z,12.80
2023-03-02T19:05:57.629Z,12.33
2023-03-02T19:08:29.619Z,13.40
2023-03-02T19:10:58.001Z,12.83
2023-03-02T19:13:26.421Z,12.57
2023-03-02T19:15:56.523Z,11.67
2023-03-02T19:18:26.378Z,12.27
2023-03-02T19:20:57.437Z,11.23
2023-03-02T19:23:25.909Z,11.77
2023-03-02T19:25:54.448Z,11.10
2023-03-02T19:28:22.608Z,10.93
2023-03-02T19:30:51.460Z,10.43
2023-03-02T19:33:19.627Z,10.47
2023-03-02T19:35:48.931Z,10.50
2023-03-02T19:38:19.150Z,11.33
2023-03-02T19:40:48.330Z,10.17
2023-03-02T19:43:16.437Z,11.27
2023-03-02T19:45:58.924Z,10.50
2023-03-02T19:48:29.753Z,10.53
2023-03-02T19:50:59.858Z,12.57
2023-03-02T19:53:29.498Z,11.63
2023-03-02T19:56:02.073Z,12.87
2023-03-02T19:58:33.172Z,12.50
2023-03-02T20:01:21.355Z,20.67
2023-03-02T20:04:13.248Z,12.47
2023-03-02T20:06:41.207Z,12.97
2023-03-02T20:09:19.783Z,12.00
2023-03-02T20:11:48.170Z,11.80
2023-03-02T20:14:27.808Z,12.73
2023-03-02T20:16:59.620Z,12.20
2023-03-02T20:19:34.184Z,12.13
2023-03-02T20:22:07.303Z,11.70
2023-03-02T20:24:36.641Z,11.60
2023-03-02T20:27:06.874Z,11.97
2023-03-02T20:29:35.268Z,10.50
2023-03-02T20:32:23.101Z,13.50
2023-03-02T20:34:51.252Z,12.00
2023-03-02T20:37:22.567Z,12.87
2023-03-02T20:39:53.439Z,12.43
2023-03-02T20:42:21.992Z,11.23
2023-03-02T20:44:51.960Z,12.13
2023-03-02T20:47:20.621Z,12.57
2023-03-02T20:49:51.555Z,11.53
2023-03-02T20:52:19.762Z,13.40
2023-03-02T20:54:47.933Z,11.00
2023-03-02T20:57:27.880Z,12.37
2023-03-02T21:00:00.194Z,12.53
2023-03-02T21:02:37.030Z,13.50
2023-03-02T21:05:07.573Z,12.53
2023-03-02T21:07:35.801Z,12.40
2023-03-02T21:10:04.606Z,12.77
2023-03-02T21:12:34.270Z,11.97
2023-03-02T21:15:23.793Z,12.60
2023-03-02T21:17:58.849Z,11.50
2023-03-02T21:20:38.436Z,12.57
2023-03-02T21:23:08.187Z,12.90
2023-03-02T21:25:37.457Z,11.70
2023-03-02T21:28:09.178Z,13.20
2023-03-02T21:30:39.273Z,13.40
2023-03-02T21:33:09.252Z,13.00
2023-03-02T21:35:44.621Z,13.17
2023-03-02T21:38:18.725Z,12.27
2023-03-02T21:40:50.564Z,11.93
2023-03-02T21:43:35.771Z,12.33
2023-03-02T21:46:03.955Z,12.93
2023-03-02T21:48:32.026Z,10.53
2023-03-02T21:51:00.610Z,11.20
2023-03-02T21:53:28.600Z,12.60
2023-03-02T21:56:03.962Z,12.60
2023-03-02T21:58:33.421Z,12.67
2023-03-02T22:01:01.771Z,12.20
2023-03-02T22:03:30.081Z,11.57
2023-03-02T22:06:00.554Z,11.87
2023-03-02T22:08:28.528Z,11.93
2023-03-02T22:10:56.520Z,10.60
2023-03-02T22:13:26.623Z,13.03
2023-03-02T22:16:11.620Z,13.40
2023-03-02T22:18:39.829Z,12.20
2023-03-02T22:21:25.665Z,12.53
2023-03-02T22:23:57.580Z,12.70
2023-03-02T22:26:25.932Z,12.43
2023-03-02T22:28:59.435Z,12.70
2023-03-02T22:31:28.935Z,14.50
2023-03-02T22:33:57.147Z,13.20
2023-03-02T22:36:27.951Z,13.97
2023-03-02T22:39:01.630Z,14.13
2023-03-02T22:41:29.607Z,12.13
2023-03-02T22:44:01.801Z,12.73
2023-03-02T22:46:31.228Z,11.93
2023-03-02T22:49:01.206Z,12.67
2023-03-02T22:51:31.073Z,12.60
2023-03-02T22:54:00.984Z,13.57
2023-03-02T22:56:32.555Z,12.27
2023-03-02T22:59:07.692Z,13.63
2023-03-02T23:01:45.461Z,12.37
2023-03-02T23:04:31.814Z,13.47
2023-03-02T23:07:17.101Z,11.67
2023-03-02T23:09:45.579Z,12.33
2023-03-02T23:12:28.656Z,12.60
2023-03-02T23:14:59.382Z,12.63
2023-03-02T23:17:38.827Z,12.43
2023-03-02T23:20:12.837Z,12.73
2023-03-02T23:22:45.000Z,13.43
2023-03-02T23:25:14.314Z,12.67
2023-03-02T23:27:42.274Z,12.30
2023-03-02T23:30:11.393Z,13.67
2023-03-02T23:32:40.792Z,11.50
2023-03-02T23:35:10.641Z,12.03
2023-03-02T23:37:38.597Z,12.10
2023-03-02T23:40:07.723Z,13.27
2023-03-02T23:42:36.133Z,11.60
2023-03-02T23:45:07.016Z,12.37
2023-03-02T23:47:36.102Z,12.97
2023-03-02T23:50:13.993Z,12.40
2023-03-02T23:52:42.384Z,11.93
2023-03-02T23:55:11.860Z,12.43
2023-03-02T23:57:39.854Z,13.87
